Time;durP1;ratioP1;P1;durP2;ratioP2;P2;SDS_P1;SDS_P2;PMS_P1;PMS_P2;Temp;Humidity;BMP_temperature;BMP_pressure;BME280_temperature;BME280_humidity;BME280_pressure;Samples;Min_cycle;Max_cycle;Signal;HPM_P1;HPM_P2
2023/05/20 00:02:23;;;;;;;12.43;11.82;;;;;;;;;;5020006;28;20097;-66
2023/05/20 00:04:49;;;;;;;12.13;11.52;;;;;;;;;;5016133;28;20046;-66
2023/05/20 00:07:14;;;;;;;12.43;11.82;;;;;;;;;;5034479;28;20021;-65
2023/05/20 00:09:39;;;;;;;12.10;11.50;;;;;;;;;;5038035;28;20102;-66
2023/05/20 00:12:05;;;;;;;12.63;12.02;;;;;;;;;;5032630;28;20067;-66
2023/05/20 00:14:30;;;;;;;12.18;11.57;;;;;;;;;;5030850;28;20018;-67
2023/05/20 00:16:55;;;;;;;12.13;11.52;;;;;;;;;;5033930;28;20033;-67
2023/05/20 00:19:21;;;;;;;12.00;11.40;;;;;;;;;;5031919;28;20052;-67
2023/05/20 00:21:47;;;;;;;11.60;11.10;;;;;;;;;;5035545;28;20017;-67
2023/05/20 00:24:12;;;;;;;12.10;11.50;;;;;;;;;;5029218;28;20025;-67
2023/05/20 00:26:37;;;;;;;12.68;12.07;;;;;;;;;;5016500;28;20034;-67
2023/05/20 00:29:02;;;;;;;13.40;12.70;;;;;;;;;;5015832;28;20108;-67
2023/05/20 00:31:28;;;;;;;13.27;12.57;;;;;;;;;;5020676;28;20022;-67
2023/05/20 00:33:53;;;;;;;12.93;12.23;;;;;;;;;;5016786;28;20104;-66
2023/05/20 00:36:18;;;;;;;12.52;11.93;;;;;;;;;;5015189;28;20084;-66
2023/05/20 00:38:44;;;;;;;12.60;12.00;;;;;;;;;;5018299;28;20068;-67
2023/05/20 00:41:10;;;;;;;12.77;12.07;;;;;;;;;;5013848;28;20055;-67
2023/05/20 00:43:35;;;;;;;12.43;11.82;;;;;;;;;;5014573;28;20748;-67
2023/05/20 00:46:00;;;;;;;12.20;11.60;;;;;;;;;;5036407;28;20032;-67
2023/05/20 00:48:27;;;;;;;13.63;12.90;;;;;;;;;;5021472;28;20084;-66
2023/05/20 00:50:53;;;;;;;14.07;13.27;;;;;;;;;;5016181;28;20044;-67
2023/05/20 00:53:18;;;;;;;12.50;11.90;;;;;;;;;;5018153;28;20034;-67
2023/05/20 00:55:44;;;;;;;13.15;12.45;;;;;;;;;;5020699;28;20042;-66
2023/05/20 00:58:10;;;;;;;13.65;12.93;;;;;;;;;;5014909;28;20100;-66
2023/05/20 01:00:35;;;;;;;13.45;12.75;;;;;;;;;;5015493;28;20071;-67
2023/05/20 01:03:00;;;;;;;12.85;12.15;;;;;;;;;;5017448;28;20022;-66
2023/05/20 01:05:26;;;;;;;12.38;11.77;;;;;;;;;;5015480;28;20049;-66
2023/05/20 01:07:51;;;;;;;12.52;11.93;;;;;;;;;;5015189;28;20029;-66
2023/05/20 01:10:16;;;;;;;13.40;12.70;;;;;;;;;;5016318;28;20025;-66
2023/05/20 01:12:47;;;;;;;12.80;12.10;;;;;;;;;;5016612;28;20030;-66
2023/05/20 01:15:14;;;;;;;12.85;12.15;;;;;;;;;;5015384;28;20445;-68
2023/05/20 01:17:43;;;;;;;13.82;13.02;;;;;;;;;;5015373;28;20083;-68
2023/05/20 01:20:10;;;;;;;13.30;12.60;;;;;;;;;;5018730;28;20500;-68
2023/05/20 01:23:08;;;;;;;14.30;13.50;;;;;;;;;;5018232;28;20029;-69
2023/05/20 01:25:33;;;;;;;13.60;12.90;;;;;;;;;;5005998;28;20048;-67
2023/05/20 01:27:58;;;;;;;12.90;12.20;;;;;;;;;;5014873;28;20492;-68
2023/05/20 01:30:29;;;;;;;12.88;12.18;;;;;;;;;;5007279;28;20026;-67
2023/05/20 01:32:58;;;;;;;13.63;12.85;;;;;;;;;;5016968;28;20022;-67
2023/05/20 01:35:24;;;;;;;12.52;11.93;;;;;;;;;;5013805;28;20139;-66
2023/05/20 01:37:51;;;;;;;12.93;12.23;;;;;;;;;;5014279;28;20489;-67
2023/05/20 01:40:17;;;;;;;12.93;12.23;;;;;;;;;;5017645;28;20018;-68
2023/05/20 01:42:43;;;;;;;13.38;12.68;;;;;;;;;;5013646;28;20029;-67
2023/05/20 01:45:08;;;;;;;13.82;13.02;;;;;;;;;;5014219;28;20033;-66
2023/05/20 01:47:33;;;;;;;12.68;12.00;;;;;;;;;;5017973;28;20017;-66
2023/05/20 01:49:59;;;;;;;12.63;12.00;;;;;;;;;;5016021;28;20033;-66
2023/05/20 01:52:24;;;;;;;13.10;12.40;;;;;;;;;;5011784;28;20060;-66
2023/05/20 01:54:50;;;;;;;13.18;12.48;;;;;;;;;;5014315;28;20029;-66
2023/05/20 01:57:21;;;;;;;12.65;11.95;;;;;;;;;;5017105;28;20045;-66
2023/05/20 01:59:47;;;;;;;12.82;12.13;;;;;;;;;;5018368;28;20049;-66
2023/05/20 02:02:15;;;;;;;12.70;12.05;;;;;;;;;;5017795;28;20074;-66
2023/05/20 02:04:42;;;;;;;12.68;12.00;;;;;;;;;;5021884;28;20057;-66
2023/05/20 02:07:08;;;;;;;12.43;11.82;;;;;;;;;;5020315;28;20022;-67
2023/05/20 02:09:33;;;;;;;11.90;11.30;;;;;;;;;;5040670;28;20687;-66
2023/05/20 02:11:58;;;;;;;12.30;11.70;;;;;;;;;;5023558;28;20091;-67
2023/05/20 02:14:24;;;;;;;11.48;10.98;;;;;;;;;;5029088;28;20365;-66
2023/05/20 02:16:49;;;;;;;12.52;11.93;;;;;;;;;;5030230;28;20019;-67
2023/05/20 02:19:22;;;;;;;11.80;11.20;;;;;;;;;;5026591;28;20021;-67
2023/05/20 02:21:47;;;;;;;12.23;11.63;;;;;;;;;;5030238;28;20022;-67
2023/05/20 02:24:13;;;;;;;12.32;11.73;;;;;;;;;;5029707;28;20063;-68
2023/05/20 02:26:38;;;;;;;12.73;12.02;;;;;;;;;;5036716;28;20577;-67
2023/05/20 02:29:03;;;;;;;12.77;12.07;;;;;;;;;;5026233;28;20029;-67
2023/05/20 02:31:29;;;;;;;12.32;11.73;;;;;;;;;;5023214;28;20056;-67
2023/05/20 02:33:54;;;;;;;12.43;11.82;;;;;;;;;;5028754;28;20057;-67
2023/05/20 02:36:20;;;;;;;12.10;11.50;;;;;;;;;;5029746;28;20032;-68
2023/05/20 02:38:45;;;;;;;12.77;12.10;;;;;;;;;;5013452;28;20076;-67
2023/05/20 02:41:10;;;;;;;12.55;11.90;;;;;;;;;;5013244;28;20025;-68
2023/05/20 02:43:35;;;;;;;13.20;12.50;;;;;;;;;;5012648;28;20030;-66
2023/05/20 02:46:03;;;;;;;13.18;12.48;;;;;;;;;;5013325;28;20033;-67
2023/05/20 02:48:29;;;;;;;12.18;11.57;;;;;;;;;;5014057;28;20043;-67
2023/05/20 02:50:54;;;;;;;13.93;13.13;;;;;;;;;;5011849;28;20477;-67
2023/05/20 02:53:20;;;;;;;12.23;11.63;;;;;;;;;;5020557;28;20033;-68
2023/05/20 02:55:48;;;;;;;13.35;12.65;;;;;;;;;;5017919;28;20071;-66
2023/05/20 02:58:14;;;;;;;13.18;12.48;;;;;;;;;;5017724;28;20076;-68
2023/05/20 03:00:41;;;;;;;14.68;13.77;;;;;;;;;;5016467;28;20025;-68
2023/05/20 03:03:07;;;;;;;13.20;12.50;;;;;;;;;;5018404;28;20431;-67
2023/05/20 03:05:36;;;;;;;14.82;13.93;;;;;;;;;;5020069;28;20050;-67
2023/05/20 03:08:02;;;;;;;13.40;12.70;;;;;;;;;;5016672;28;20029;-67
2023/05/20 03:10:27;;;;;;;12.75;12.05;;;;;;;;;;5017057;28;20123;-67
2023/05/20 03:12:53;;;;;;;12.60;11.98;;;;;;;;;;5019433;28;20029;-67
2023/05/20 03:15:18;;;;;;;13.32;12.60;;;;;;;;;;5018059;28;20560;-66
2023/05/20 03:17:43;;;;;;;13.77;13.02;;;;;;;;;;5021692;28;20033;-66
2023/05/20 03:20:11;;;;;;;12.95;12.25;;;;;;;;;;5024722;28;20026;-66
2023/05/20 03:22:36;;;;;;;13.32;12.63;;;;;;;;;;5017893;28;20029;-66
2023/05/20 03:25:03;;;;;;;13.60;12.85;;;;;;;;;;5016214;28;20036;-66
2023/05/20 03:27:28;;;;;;;13.05;12.35;;;;;;;;;;5020024;28;20022;-67
2023/05/20 03:29:54;;;;;;;12.57;11.98;;;;;;;;;;5018095;28;20029;-66
2023/05/20 03:32:20;;;;;;;12.95;12.25;;;;;;;;;;5025440;28;20436;-66
2023/05/20 03:34:45;;;;;;;12.93;12.23;;;;;;;;;;5026990;28;20029;-66
2023/05/20 03:37:10;;;;;;;12.68;12.07;;;;;;;;;;5021872;28;20029;-66
2023/05/20 03:39:36;;;;;;;12.05;11.45;;;;;;;;;;5022569;28;20030;-66
2023/05/20 03:42:01;;;;;;;12.88;12.18;;;;;;;;;;5027283;28;20026;-66
2023/05/20 03:44:26;;;;;;;12.35;11.75;;;;;;;;;;5023133;28;20544;-66
2023/05/20 03:46:52;;;;;;;12.85;12.15;;;;;;;;;;5023079;28;20041;-65
2023/05/20 03:49:17;;;;;;;12.32;11.73;;;;;;;;;;5021777;28;20044;-66
2023/05/20 03:51:42;;;;;;;12.77;12.07;;;;;;;;;;5023738;28;20025;-66
2023/05/20 03:54:08;;;;;;;12.77;12.10;;;;;;;;;;5022679;28;21155;-65
2023/05/20 03:56:33;;;;;;;13.18;12.48;;;;;;;;;;5018005;28;20018;-65
2023/05/20 03:58:58;;;;;;;13.25;12.55;;;;;;;;;;5019918;28;20939;-65
2023/05/20 04:01:24;;;;;;;13.35;12.65;;;;;;;;;;5021341;28;21000;-66
2023/05/20 04:03:49;;;;;;;14.45;13.65;;;;;;;;;;5016798;28;20732;-66
2023/05/20 04:06:15;;;;;;;11.60;11.10;;;;;;;;;;5027651;28;20461;-66
2023/05/20 04:08:41;;;;;;;12.73;12.13;;;;;;;;;;5030565;28;20022;-66
2023/05/20 04:11:06;;;;;;;12.10;11.50;;;;;;;;;;5030462;28;20029;-67
2023/05/20 04:13:31;;;;;;;13.32;12.63;;;;;;;;;;5029058;28;20093;-65
2023/05/20 04:15:57;;;;;;;12.20;11.60;;;;;;;;;;5024026;28;20048;-65
2023/05/20 04:18:22;;;;;;;12.23;11.63;;;;;;;;;;5030611;28;20432;-66
2023/05/20 04:20:47;;;;;;;13.20;12.60;;;;;;;;;;5030524;28;20026;-66
2023/05/20 04:23:13;;;;;;;12.30;11.70;;;;;;;;;;5032323;28;20030;-65
2023/05/20 04:25:40;;;;;;;12.60;12.00;;;;;;;;;;5029326;28;20582;-65
2023/05/20 04:28:05;;;;;;;12.20;11.60;;;;;;;;;;5031748;28;20147;-65
2023/05/20 04:30:32;;;;;;;12.43;11.82;;;;;;;;;;5038408;28;20108;-62
2023/05/20 04:32:57;;;;;;;12.07;11.50;;;;;;;;;;5031292;28;20030;-66
2023/05/20 04:35:24;;;;;;;11.52;11.02;;;;;;;;;;5031117;28;20133;-65
2023/05/20 04:37:52;;;;;;;11.95;11.43;;;;;;;;;;5027748;28;20071;-66
2023/05/20 04:40:18;;;;;;;12.63;12.02;;;;;;;;;;5019837;28;20033;-66
2023/05/20 04:42:43;;;;;;;12.90;12.30;;;;;;;;;;5020116;28;20045;-64
2023/05/20 04:45:09;;;;;;;12.48;11.88;;;;;;;;;;5020241;28;20029;-65
2023/05/20 04:47:37;;;;;;;12.70;12.10;;;;;;;;;;5022865;28;20029;-66
2023/05/20 04:50:04;;;;;;;13.27;12.68;;;;;;;;;;5020392;28;20025;-65
2023/05/20 04:52:30;;;;;;;11.93;11.43;;;;;;;;;;5022318;28;20499;-65
2023/05/20 04:54:57;;;;;;;12.68;12.07;;;;;;;;;;5021174;28;20030;-64
2023/05/20 04:57:22;;;;;;;12.00;11.50;;;;;;;;;;5020770;28;20033;-65
2023/05/20 04:59:47;;;;;;;13.20;12.60;;;;;;;;;;5018511;28;20400;-65
2023/05/20 05:02:13;;;;;;;12.60;12.00;;;;;;;;;;5018810;28;20018;-65
2023/05/20 05:04:38;;;;;;;12.15;11.55;;;;;;;;;;5012347;28;20057;-64
2023/05/20 05:07:04;;;;;;;12.02;11.50;;;;;;;;;;5028452;28;20041;-64
2023/05/20 05:09:29;;;;;;;11.73;11.23;;;;;;;;;;5027632;28;20021;-65
2023/05/20 05:11:55;;;;;;;11.93;11.43;;;;;;;;;;5030352;28;20028;-65
2023/05/20 05:14:21;;;;;;;12.32;11.73;;;;;;;;;;5028431;28;20513;-59
2023/05/20 05:16:46;;;;;;;13.00;12.40;;;;;;;;;;5022935;28;20056;-66
2023/05/20 05:19:12;;;;;;;12.10;11.57;;;;;;;;;;5022777;28;20102;-66
2023/05/20 05:21:37;;;;;;;12.48;11.88;;;;;;;;;;5028238;28;20025;-68
2023/05/20 05:24:03;;;;;;;12.35;11.75;;;;;;;;;;5028644;28;20037;-68
2023/05/20 05:26:28;;;;;;;13.70;13.00;;;;;;;;;;5029844;28;20566;-68
2023/05/20 05:28:54;;;;;;;12.30;11.70;;;;;;;;;;5030027;28;20021;-68
2023/05/20 05:31:19;;;;;;;13.00;12.40;;;;;;;;;;5029492;28;20361;-68
2023/05/20 05:33:44;;;;;;;13.18;12.57;;;;;;;;;;5029180;28;20023;-68
2023/05/20 05:36:10;;;;;;;12.70;12.10;;;;;;;;;;5026118;28;20157;-68
2023/05/20 05:38:35;;;;;;;12.70;12.10;;;;;;;;;;5039478;28;20052;-67
2023/05/20 05:41:00;;;;;;;11.90;11.40;;;;;;;;;;5033928;28;20568;-67
2023/05/20 05:43:26;;;;;;;12.48;11.88;;;;;;;;;;5031661;28;20025;-68
2023/05/20 05:45:51;;;;;;;12.30;11.70;;;;;;;;;;5035410;28;20028;-68
2023/05/20 05:48:16;;;;;;;12.32;11.73;;;;;;;;;;5028503;28;20013;-68
2023/05/20 05:50:45;;;;;;;12.70;12.10;;;;;;;;;;5029973;28;20025;-67
2023/05/20 05:53:11;;;;;;;12.70;12.10;;;;;;;;;;5032957;28;20087;-68
2023/05/20 05:55:36;;;;;;;12.80;12.20;;;;;;;;;;5030148;28;20017;-68
2023/05/20 05:58:01;;;;;;;12.07;11.52;;;;;;;;;;5029858;28;20013;-69
2023/05/20 06:00:26;;;;;;;12.50;11.90;;;;;;;;;;5030462;28;20027;-68
2023/05/20 06:02:52;;;;;;;12.20;11.60;;;;;;;;;;5031509;28;20014;-68
2023/05/20 06:05:17;;;;;;;11.95;11.45;;;;;;;;;;5028306;28;20409;-68
2023/05/20 06:07:42;;;;;;;12.68;12.07;;;;;;;;;;5029839;28;20033;-68
2023/05/20 06:10:08;;;;;;;12.65;12.05;;;;;;;;;;5030423;28;20017;-71
2023/05/20 06:12:33;;;;;;;12.60;12.00;;;;;;;;;;5029912;28;20025;-69
2023/05/20 06:14:59;;;;;;;12.55;11.95;;;;;;;;;;5061836;28;20037;-68
2023/05/20 06:17:24;;;;;;;12.77;12.18;;;;;;;;;;5030006;28;20023;-68
2023/05/20 06:19:50;;;;;;;12.68;12.07;;;;;;;;;;5029804;28;20053;-68
2023/05/20 06:22:15;;;;;;;12.50;11.90;;;;;;;;;;5030247;28;20056;-68
2023/05/20 06:24:40;;;;;;;12.40;11.80;;;;;;;;;;5029677;28;20022;-69
2023/05/20 06:27:06;;;;;;;12.82;12.23;;;;;;;;;;5035234;28;20021;-68
2023/05/20 06:29:31;;;;;;;12.50;11.90;;;;;;;;;;5036274;28;20034;-68
2023/05/20 06:31:56;;;;;;;12.65;12.05;;;;;;;;;;5033098;28;20013;-68
2023/05/20 06:34:22;;;;;;;13.02;12.43;;;;;;;;;;5033777;28;20021;-68
2023/05/20 06:36:47;;;;;;;12.27;11.68;;;;;;;;;;5033002;28;20441;-68
2023/05/20 06:39:12;;;;;;;12.45;11.85;;;;;;;;;;5026372;28;20079;-69
2023/05/20 06:41:38;;;;;;;12.93;12.32;;;;;;;;;;5033137;28;20030;-69
2023/05/20 06:44:04;;;;;;;12.13;11.52;;;;;;;;;;5033751;28;20095;-69
2023/05/20 06:46:29;;;;;;;12.15;11.55;;;;;;;;;;5033426;28;20029;-67
2023/05/20 06:48:54;;;;;;;12.18;11.60;;;;;;;;;;5033431;28;20034;-68
2023/05/20 06:51:20;;;;;;;12.18;11.57;;;;;;;;;;5033501;28;20060;-69
2023/05/20 06:53:45;;;;;;;12.35;11.75;;;;;;;;;;5037182;28;20517;-68
2023/05/20 06:56:11;;;;;;;12.15;11.55;;;;;;;;;;5033074;28;20604;-67
2023/05/20 06:58:37;;;;;;;12.68;12.07;;;;;;;;;;5045552;28;20022;-69
2023/05/20 07:01:02;;;;;;;13.55;12.85;;;;;;;;;;5030108;28;20109;-68
2023/05/20 07:03:28;;;;;;;13.00;12.40;;;;;;;;;;5037474;28;20136;-68
2023/05/20 07:05:53;;;;;;;12.75;12.15;;;;;;;;;;5036300;28;20026;-68
2023/05/20 07:08:18;;;;;;;12.80;12.20;;;;;;;;;;5032750;28;20477;-68
2023/05/20 07:10:45;;;;;;;12.40;11.80;;;;;;;;;;5033019;28;20028;-68
2023/05/20 07:13:10;;;;;;;12.18;11.57;;;;;;;;;;5032643;28;20022;-69
2023/05/20 07:15:35;;;;;;;12.38;11.77;;;;;;;;;;5032587;28;20496;-69
2023/05/20 07:18:01;;;;;;;12.85;12.25;;;;;;;;;;5032001;28;20097;-69
2023/05/20 07:20:26;;;;;;;12.23;11.63;;;;;;;;;;5031610;28;20025;-69
2023/05/20 07:22:51;;;;;;;11.35;10.85;;;;;;;;;;5032871;28;20059;-68
2023/05/20 07:25:17;;;;;;;11.82;11.32;;;;;;;;;;5032792;28;20389;-69
2023/05/20 07:27:42;;;;;;;12.20;11.60;;;;;;;;;;5030478;28;20094;-68
2023/05/20 07:30:08;;;;;;;12.38;11.77;;;;;;;;;;5031019;28;20104;-68
2023/05/20 07:32:33;;;;;;;12.27;11.68;;;;;;;;;;5032659;28;20461;-68
2023/05/20 07:34:59;;;;;;;12.25;11.65;;;;;;;;;;5030729;28;20036;-68
2023/05/20 07:37:24;;;;;;;12.38;11.77;;;;;;;;;;5026119;28;20116;-69
2023/05/20 07:39:49;;;;;;;12.30;11.70;;;;;;;;;;5027076;28;20026;-68
2023/05/20 07:42:15;;;;;;;12.70;12.10;;;;;;;;;;5037317;28;20084;-68
2023/05/20 07:44:40;;;;;;;12.65;12.05;;;;;;;;;;5043484;28;20028;-69
2023/05/20 07:47:05;;;;;;;13.00;12.40;;;;;;;;;;5032337;28;20047;-68
2023/05/20 07:49:31;;;;;;;12.45;11.85;;;;;;;;;;5031913;28;20009;-68
2023/05/20 07:51:56;;;;;;;12.20;11.60;;;;;;;;;;5032117;28;20025;-69
2023/05/20 07:54:22;;;;;;;12.53;11.93;;;;;;;;;;5042260;28;20021;-68
2023/05/20 07:56:47;;;;;;;12.52;11.93;;;;;;;;;;5031876;28;20753;-67
2023/05/20 07:59:13;;;;;;;12.80;12.20;;;;;;;;;;5031797;28;20053;-68
2023/05/20 08:01:40;;;;;;;12.57;11.98;;;;;;;;;;5039737;28;20022;-68
2023/05/20 08:04:05;;;;;;;12.88;12.27;;;;;;;;;;5039967;28;20049;-68
2023/05/20 08:06:31;;;;;;;12.90;12.30;;;;;;;;;;5031637;28;20102;-68
2023/05/20 08:08:56;;;;;;;12.70;12.10;;;;;;;;;;5032501;28;20067;-70
2023/05/20 08:11:22;;;;;;;12.40;11.80;;;;;;;;;;5030888;28;20021;-69
2023/05/20 08:13:47;;;;;;;12.57;11.97;;;;;;;;;;5031701;28;20029;-69
2023/05/20 08:16:13;;;;;;;12.40;11.80;;;;;;;;;;5031856;28;20246;-68
2023/05/20 08:18:38;;;;;;;12.73;12.13;;;;;;;;;;5031624;28;20086;-68
2023/05/20 08:21:08;;;;;;;12.73;12.13;;;;;;;;;;5033286;28;20017;-68
2023/05/20 08:23:34;;;;;;;12.40;11.80;;;;;;;;;;5032259;28;20029;-68
2023/05/20 08:26:01;;;;;;;11.95;11.45;;;;;;;;;;5033136;28;20029;-68
2023/05/20 08:28:29;;;;;;;12.00;11.50;;;;;;;;;;5041985;28;20104;-68
2023/05/20 08:30:54;;;;;;;12.48;11.88;;;;;;;;;;5033683;28;20025;-69
2023/05/20 08:33:21;;;;;;;12.32;11.73;;;;;;;;;;5032445;28;20010;-70
2023/05/20 08:35:47;;;;;;;12.30;11.70;;;;;;;;;;5038205;28;20013;-69
2023/05/20 08:38:13;;;;;;;12.38;11.77;;;;;;;;;;5023558;28;20026;-68
2023/05/20 08:40:39;;;;;;;12.77;12.18;;;;;;;;;;5019484;28;20393;-68
2023/05/20 08:43:04;;;;;;;12.40;11.80;;;;;;;;;;5019745;28;20022;-68
2023/05/20 08:45:33;;;;;;;12.50;11.90;;;;;;;;;;5036569;28;20017;-69
2023/05/20 08:47:59;;;;;;;12.25;11.68;;;;;;;;;;5036326;28;20010;-68
2023/05/20 08:50:24;;;;;;;12.23;11.63;;;;;;;;;;5035802;28;20084;-69
2023/05/20 08:52:50;;;;;;;11.88;11.38;;;;;;;;;;5031139;28;20022;-69
2023/05/20 08:55:26;;;;;;;12.30;11.70;;;;;;;;;;5031354;28;20021;-68
2023/05/20 08:57:53;;;;;;;11.88;11.38;;;;;;;;;;5032258;28;20005;-69
2023/05/20 09:00:19;;;;;;;12.20;11.60;;;;;;;;;;5031048;28;20056;-69
2023/05/20 09:02:44;;;;;;;12.07;11.52;;;;;;;;;;5028212;28;20013;-68
2023/05/20 09:05:10;;;;;;;12.02;11.52;;;;;;;;;;5028755;28;20029;-69
2023/05/20 09:07:36;;;;;;;11.82;11.32;;;;;;;;;;5031050;28;20093;-70
2023/05/20 09:10:01;;;;;;;12.30;11.70;;;;;;;;;;5029403;28;20025;-69
2023/05/20 09:12:26;;;;;;;12.63;12.02;;;;;;;;;;5028077;28;20033;-68
2023/05/20 09:14:52;;;;;;;12.55;11.95;;;;;;;;;;5029124;28;20760;-70
2023/05/20 09:17:17;;;;;;;12.70;12.10;;;;;;;;;;5027302;28;20381;-68
2023/05/20 09:19:43;;;;;;;12.50;11.90;;;;;;;;;;5030548;28;20044;-69
2023/05/20 09:22:08;;;;;;;12.95;12.35;;;;;;;;;;5033042;28;20663;-68
2023/05/20 09:24:34;;;;;;;12.23;11.63;;;;;;;;;;5030832;28;20033;-67
2023/05/20 09:27:01;;;;;;;11.82;11.32;;;;;;;;;;5030894;28;20014;-68
2023/05/20 09:29:26;;;;;;;12.32;11.73;;;;;;;;;;5028227;28;20053;-69
2023/05/20 09:31:54;;;;;;;13.27;12.68;;;;;;;;;;5030457;28;20342;-68
2023/05/20 09:34:20;;;;;;;12.00;11.50;;;;;;;;;;5030909;28;20021;-70
2023/05/20 09:36:47;;;;;;;12.52;11.93;;;;;;;;;;5030192;28;20547;-68
2023/05/20 09:39:15;;;;;;;12.57;11.98;;;;;;;;;;5030279;28;20536;-68
2023/05/20 09:42:03;;;;;;;12.43;11.82;;;;;;;;;;5036543;28;20018;-69
2023/05/20 09:44:30;;;;;;;12.57;11.98;;;;;;;;;;5031041;28;20044;-69
2023/05/20 09:46:55;;;;;;;11.77;11.27;;;;;;;;;;5038200;28;20067;-68
2023/05/20 09:49:22;;;;;;;12.38;11.77;;;;;;;;;;5034868;28;20049;-69
2023/05/20 09:51:48;;;;;;;12.68;12.07;;;;;;;;;;5038720;28;20508;-68
2023/05/20 09:54:14;;;;;;;11.95;11.45;;;;;;;;;;5036442;28;20558;-68
2023/05/20 09:56:40;;;;;;;12.30;11.70;;;;;;;;;;5030671;28;20025;-69
2023/05/20 09:59:06;;;;;;;12.27;11.68;;;;;;;;;;5026810;28;20506;-69
2023/05/20 10:01:32;;;;;;;14.60;13.90;;;;;;;;;;5029771;28;20022;-69
2023/05/20 10:03:58;;;;;;;14.65;13.95;;;;;;;;;;5041244;28;20125;-69
2023/05/20 10:06:42;;;;;;;11.80;11.30;;;;;;;;;;5027388;28;20022;-69
2023/05/20 10:09:22;;;;;;;11.88;11.38;;;;;;;;;;5030950;28;20030;-69
2023/05/20 10:12:06;;;;;;;12.00;11.50;;;;;;;;;;5030164;28;20426;-68
2023/05/20 10:14:31;;;;;;;;;;;;;;;;;;5034360;28;20029;-69
2023/05/20 10:17:32;;;;;;;12.80;12.20;;;;;;;;;;5034479;28;19905;-68
2023/05/20 10:19:58;;;;;;;12.68;12.07;;;;;;;;;;5027057;28;20328;-68
2023/05/20 10:22:32;;;;;;;12.38;11.77;;;;;;;;;;5023239;28;20026;-69
2023/05/20 10:24:59;;;;;;;11.88;11.38;;;;;;;;;;5032102;28;20021;-69
2023/05/20 10:27:24;;;;;;;12.40;11.80;;;;;;;;;;5033827;28;20017;-69
2023/05/20 10:29:50;;;;;;;12.68;12.07;;;;;;;;;;5033950;28;20017;-68
2023/05/20 10:32:30;;;;;;;11.85;11.35;;;;;;;;;;5034467;28;20032;-69
2023/05/20 10:35:00;;;;;;;12.98;12.38;;;;;;;;;;5033868;28;20025;-69
2023/05/20 10:37:32;;;;;;;12.30;11.70;;;;;;;;;;5026749;28;20481;-69
2023/05/20 10:40:23;;;;;;;12.43;11.82;;;;;;;;;;5031682;28;20029;-69
2023/05/20 10:42:48;;;;;;;12.23;11.63;;;;;;;;;;5032698;28;20034;-69
2023/05/20 10:45:27;;;;;;;11.82;11.32;;;;;;;;;;5037499;28;20070;-69
2023/05/20 10:47:58;;;;;;;11.77;11.27;;;;;;;;;;5040677;28;20029;-68
2023/05/20 10:50:37;;;;;;;11.48;10.98;;;;;;;;;;5035453;28;20048;-68
2023/05/20 10:53:05;;;;;;;12.35;11.75;;;;;;;;;;5033634;28;20022;-68
2023/05/20 10:55:35;;;;;;;11.68;11.18;;;;;;;;;;5033490;28;20057;-67
2023/05/20 10:58:00;;;;;;;12.48;11.88;;;;;;;;;;5037647;28;20071;-69
2023/05/20 11:00:26;;;;;;;11.55;11.05;;;;;;;;;;5042325;28;20492;-68
2023/05/20 11:02:51;;;;;;;12.30;11.70;;;;;;;;;;5033195;28;20078;-69
2023/05/20 11:05:17;;;;;;;13.50;12.90;;;;;;;;;;5033470;28;20095;-68
2023/05/20 11:07:42;;;;;;;11.65;11.15;;;;;;;;;;5032669;28;20242;-70
2023/05/20 11:10:08;;;;;;;11.80;11.30;;;;;;;;;;5033043;28;20220;-68
2023/05/20 11:12:34;;;;;;;11.98;11.45;;;;;;;;;;5033961;28;20014;-68
2023/05/20 11:15:00;;;;;;;11.80;11.30;;;;;;;;;;5039238;28;20013;-68
2023/05/20 11:17:25;;;;;;;11.80;11.30;;;;;;;;;;5033329;28;20149;-68
2023/05/20 11:19:50;;;;;;;12.50;11.90;;;;;;;;;;5038235;28;20144;-68
2023/05/20 11:22:16;;;;;;;12.15;11.57;;;;;;;;;;5030276;28;20064;-68
2023/05/20 11:24:41;;;;;;;12.18;11.57;;;;;;;;;;5031875;28;20020;-68
2023/05/20 11:27:06;;;;;;;13.18;12.57;;;;;;;;;;5032758;28;20033;-69
2023/05/20 11:29:32;;;;;;;11.70;11.20;;;;;;;;;;5035686;28;20472;-68
2023/05/20 11:31:58;;;;;;;12.25;11.65;;;;;;;;;;5034899;28;20022;-68
2023/05/20 11:34:23;;;;;;;11.50;11.00;;;;;;;;;;5027733;28;20033;-69
2023/05/20 11:36:58;;;;;;;11.80;11.30;;;;;;;;;;5029250;28;20017;-68
2023/05/20 11:39:24;;;;;;;12.05;11.55;;;;;;;;;;5032568;28;20029;-68
2023/05/20 11:41:49;;;;;;;11.70;11.20;;;;;;;;;;5038067;28;20013;-69
2023/05/20 11:44:14;;;;;;;11.90;11.40;;;;;;;;;;5034206;28;20458;-68
2023/05/20 11:46:44;;;;;;;12.20;11.60;;;;;;;;;;5029911;28;20401;-69
2023/05/20 11:49:11;;;;;;;12.20;11.60;;;;;;;;;;5032170;28;20036;-68
2023/05/20 11:51:37;;;;;;;11.85;11.35;;;;;;;;;;5040368;28;20025;-67
2023/05/20 11:54:03;;;;;;;12.50;11.90;;;;;;;;;;5045610;28;20017;-68
2023/05/20 11:56:30;;;;;;;11.88;11.38;;;;;;;;;;5034659;28;20010;-68
2023/05/20 11:58:58;;;;;;;11.15;10.65;;;;;;;;;;5037538;28;20442;-68
2023/05/20 12:01:24;;;;;;;12.30;11.70;;;;;;;;;;5030085;28;20045;-69
2023/05/20 12:03:49;;;;;;;11.90;11.40;;;;;;;;;;5032398;28;20131;-68
2023/05/20 12:06:15;;;;;;;11.52;11.02;;;;;;;;;;5030689;28;20501;-68
2023/05/20 12:08:41;;;;;;;12.07;11.52;;;;;;;;;;5032549;28;20049;-68
2023/05/20 12:11:06;;;;;;;11.43;10.93;;;;;;;;;;5032416;28;20056;-69
2023/05/20 12:13:31;;;;;;;11.40;10.90;;;;;;;;;;5031757;28;20608;-69
2023/05/20 12:15:57;;;;;;;12.20;11.60;;;;;;;;;;5029882;28;20063;-69
2023/05/20 12:18:22;;;;;;;11.80;11.30;;;;;;;;;;5023889;28;20392;-69
2023/05/20 12:20:47;;;;;;;12.55;11.95;;;;;;;;;;5031393;28;20017;-69
2023/05/20 12:23:12;;;;;;;12.97;12.37;;;;;;;;;;5031185;28;20013;-69
2023/05/20 12:25:38;;;;;;;12.80;12.20;;;;;;;;;;5030171;28;20754;-68
2023/05/20 12:28:03;;;;;;;12.52;11.93;;;;;;;;;;5031980;28;20056;-68
2023/05/20 12:30:28;;;;;;;12.38;11.77;;;;;;;;;;5031169;28;20486;-69
2023/05/20 12:32:54;;;;;;;12.18;11.57;;;;;;;;;;5033280;28;20032;-69
2023/05/20 12:35:35;;;;;;;11.90;11.40;;;;;;;;;;5031241;28;20101;-69
2023/05/20 12:38:00;;;;;;;11.90;11.40;;;;;;;;;;5031793;28;20018;-68
2023/05/20 12:40:25;;;;;;;12.20;11.60;;;;;;;;;;5022206;28;20028;-69
2023/05/20 12:42:51;;;;;;;11.95;11.45;;;;;;;;;;5031265;28;20028;-68
2023/05/20 12:45:16;;;;;;;12.50;11.90;;;;;;;;;;5034469;28;20024;-69
2023/05/20 12:47:41;;;;;;;12.03;11.47;;;;;;;;;;5031525;28;20328;-69
2023/05/20 12:50:07;;;;;;;11.95;11.45;;;;;;;;;;5040799;28;20263;-68
2023/05/20 12:52:33;;;;;;;12.10;11.50;;;;;;;;;;5033549;28;20018;-69
2023/05/20 12:54:58;;;;;;;11.57;11.07;;;;;;;;;;5023319;28;20033;-68
2023/05/20 12:57:23;;;;;;;11.60;11.10;;;;;;;;;;5037720;28;20028;-67
2023/05/20 12:59:50;;;;;;;11.68;11.18;;;;;;;;;;5039174;28;20029;-68
2023/05/20 13:02:15;;;;;;;11.60;11.10;;;;;;;;;;5031250;28;20013;-68
2023/05/20 13:04:41;;;;;;;11.90;11.40;;;;;;;;;;5029416;28;20095;-68
2023/05/20 13:07:06;;;;;;;12.18;11.57;;;;;;;;;;5036781;28;20017;-69
2023/05/20 13:09:32;;;;;;;12.38;11.77;;;;;;;;;;5030991;28;20098;-69
2023/05/20 13:11:57;;;;;;;11.57;11.07;;;;;;;;;;5037793;28;20079;-70
2023/05/20 13:14:22;;;;;;;12.48;11.88;;;;;;;;;;5031402;28;20071;-69
2023/05/20 13:16:48;;;;;;;11.88;11.38;;;;;;;;;;5030683;28;20025;-68
2023/05/20 13:19:14;;;;;;;11.80;11.30;;;;;;;;;;5042362;28;20009;-68
2023/05/20 13:21:39;;;;;;;11.77;11.27;;;;;;;;;;5030953;28;20027;-68
2023/05/20 13:24:04;;;;;;;12.80;12.20;;;;;;;;;;5030707;28;20029;-68
2023/05/20 13:26:30;;;;;;;12.48;11.88;;;;;;;;;;5030490;28;20014;-69
2023/05/20 13:28:55;;;;;;;11.43;10.93;;;;;;;;;;5033691;28;20399;-70
2023/05/20 13:31:22;;;;;;;11.70;11.20;;;;;;;;;;5036069;28;20084;-69
2023/05/20 13:33:47;;;;;;;12.30;11.70;;;;;;;;;;5030211;28;20104;-69
2023/05/20 13:36:13;;;;;;;11.75;11.25;;;;;;;;;;5039701;28;20101;-68
2023/05/20 13:38:38;;;;;;;12.20;11.60;;;;;;;;;;5033722;28;20056;-69
2023/05/20 13:41:04;;;;;;;11.47;10.97;;;;;;;;;;5039741;28;20014;-69
2023/05/20 13:43:30;;;;;;;11.90;11.40;;;;;;;;;;5031947;28;20306;-69
2023/05/20 13:45:56;;;;;;;11.68;11.18;;;;;;;;;;5031304;28;20078;-69
2023/05/20 13:48:21;;;;;;;11.68;11.18;;;;;;;;;;5030180;28;20029;-69
2023/05/20 13:50:47;;;;;;;12.35;11.75;;;;;;;;;;5024348;28;20117;-69
2023/05/20 13:53:12;;;;;;;12.75;12.15;;;;;;;;;;5026454;28;20516;-69
2023/05/20 13:55:38;;;;;;;11.88;11.38;;;;;;;;;;5030654;28;20010;-68
2023/05/20 13:58:07;;;;;;;12.18;11.57;;;;;;;;;;5028324;28;20017;-68
2023/05/20 14:00:34;;;;;;;11.88;11.38;;;;;;;;;;5034505;28;20014;-68
2023/05/20 14:02:59;;;;;;;12.10;11.50;;;;;;;;;;5027849;28;20022;-68
2023/05/20 14:05:25;;;;;;;12.07;11.55;;;;;;;;;;5027091;28;20060;-69
2023/05/20 14:07:50;;;;;;;11.90;11.40;;;;;;;;;;5030431;28;20028;-69
2023/05/20 14:10:16;;;;;;;12.00;11.50;;;;;;;;;;5025070;28;20484;-69
2023/05/20 14:12:46;;;;;;;12.80;12.20;;;;;;;;;;5029397;28;20025;-69
2023/05/20 14:15:11;;;;;;;11.50;11.00;;;;;;;;;;5031198;28;20044;-68